sensor_id;sensor_type;location;lat;lon;timestamp;P1;durP1;ratioP1;P2;durP2;ratioP2
2838;SDS011;1427;48.510;9.060;2024-03-17T00:01:13;45.23;;;1.73;;
2838;SDS011;1427;48.510;9.060;2024-03-17T00:03:39;47.17;;;2.03;;
2838;SDS011;1427;48.510;9.060;2024-03-17T00:06:07;47.47;;;3.80;;
2838;SDS011;1427;48.510;9.060;2024-03-17T00:08:34;49.70;;;2.97;;
2838;SDS011;1427;48.510;9.060;2024-03-17T00:11:01;46.47;;;1.80;;
2838;SDS011;1427;48.510;9.060;2024-03-17T00:13:28;45.10;;;1.70;;
2838;SDS011;1427;48.510;9.060;2024-03-17T00:15:55;54.20;;;4.90;;
2838;SDS011;1427;48.510;9.060;2024-03-17T00:18:21;45.33;;;1.83;;
2838;SDS011;1427;48.510;9.060;2024-03-17T00:20:48;53.30;;;3.57;;
2838;SDS011;1427;48.510;9.060;2024-03-17T00:23:15;47.43;;;2.23;;
2838;SDS011;1427;48.510;9.060;2024-03-17T00:25:42;45.00;;;1.50;;
2838;SDS011;1427;48.510;9.060;2024-03-17T00:28:09;45.27;;;1.83;;
2838;SDS011;1427;48.510;9.060;2024-03-17T00:30:38;47.67;;;2.10;;
2838;SDS011;1427;48.510;9.060;2024-03-17T00:33:05;46.37;;;2.50;;
2838;SDS011;1427;48.510;9.060;2024-03-17T00:35:32;46.13;;;1.97;;
2838;SDS011;1427;48.510;9.060;2024-03-17T00:37:58;48.50;;;2.27;;
2838;SDS011;1427;48.510;9.060;2024-03-17T00:40:30;45.00;;;1.40;;
2838;SDS011;1427;48.510;9.060;2024-03-17T00:42:56;47.07;;;1.97;;
2838;SDS011;1427;48.510;9.060;2024-03-17T00:45:23;48.43;;;2.33;;
2838;SDS011;1427;48.510;9.060;2024-03-17T00:47:49;45.63;;;1.90;;
2838;SDS011;1427;48.510;9.060;2024-03-17T00:50:16;45.57;;;1.80;;
2838;SDS011;1427;48.510;9.060;2024-03-17T00:52:42;47.33;;;2.10;;
2838;SDS011;1427;48.510;9.060;2024-03-17T00:55:09;44.70;;;1.50;;
2838;SDS011;1427;48.510;9.060;2024-03-17T00:57:37;45.20;;;1.53;;
2838;SDS011;1427;48.510;9.060;2024-03-17T01:00:04;45.27;;;2.03;;
2838;SDS011;1427;48.510;9.060;2024-03-17T01:02:31;47.00;;;2.10;;
2838;SDS011;1427;48.510;9.060;2024-03-17T01:04:58;45.23;;;1.50;;
2838;SDS011;1427;48.510;9.060;2024-03-17T01:07:24;46.20;;;2.10;;
2838;SDS011;1427;48.510;9.060;2024-03-17T01:09:52;45.90;;;2.00;;
2838;SDS011;1427;48.510;9.060;2024-03-17T01:12:19;45.30;;;2.00;;
2838;SDS011;1427;48.510;9.060;2024-03-17T01:14:48;46.90;;;3.30;;
2838;SDS011;1427;48.510;9.060;2024-03-17T01:17:14;45.80;;;1.67;;
2838;SDS011;1427;48.510;9.060;2024-03-17T01:19:41;45.70;;;1.87;;
2838;SDS011;1427;48.510;9.060;2024-03-17T01:22:07;45.33;;;1.93;;
2838;SDS011;1427;48.510;9.060;2024-03-17T01:24:34;55.00;;;4.60;;
2838;SDS011;1427;48.510;9.060;2024-03-17T01:27:00;59.10;;;7.70;;
2838;SDS011;1427;48.510;9.060;2024-03-17T01:29:27;48.90;;;3.50;;
2838;SDS011;1427;48.510;9.060;2024-03-17T01:31:55;50.93;;;2.47;;
2838;SDS011;1427;48.510;9.060;2024-03-17T01:34:22;48.37;;;3.50;;
2838;SDS011;1427;48.510;9.060;2024-03-17T01:36:48;46.40;;;2.53;;
2838;SDS011;1427;48.510;9.060;2024-03-17T01:39:16;45.47;;;1.90;;
2838;SDS011;1427;48.510;9.060;2024-03-17T01:41:43;45.67;;;2.00;;
2838;SDS011;1427;48.510;9.060;2024-03-17T01:44:20;45.70;;;2.17;;
2838;SDS011;1427;48.510;9.060;2024-03-17T01:46:48;45.53;;;1.93;;
2838;SDS011;1427;48.510;9.060;2024-03-17T01:49:17;45.30;;;1.97;;
2838;SDS011;1427;48.510;9.060;2024-03-17T01:51:45;47.77;;;3.27;;
2838;SDS011;1427;48.510;9.060;2024-03-17T01:54:12;48.63;;;2.83;;
2838;SDS011;1427;48.510;9.060;2024-03-17T01:56:40;45.87;;;2.07;;
2838;SDS011;1427;48.510;9.060;2024-03-17T01:59:07;48.80;;;2.23;;
2838;SDS011;1427;48.510;9.060;2024-03-17T02:01:35;45.10;;;1.60;;
2838;SDS011;1427;48.510;9.060;2024-03-17T02:04:01;45.17;;;1.70;;
2838;SDS011;1427;48.510;9.060;2024-03-17T02:06:30;45.90;;;2.00;;
2838;SDS011;1427;48.510;9.060;2024-03-17T02:08:56;45.23;;;1.50;;
2838;SDS011;1427;48.510;9.060;2024-03-17T02:11:24;46.40;;;1.97;;
2838;SDS011;1427;48.510;9.060;2024-03-17T02:13:52;45.17;;;1.70;;
2838;SDS011;1427;48.510;9.060;2024-03-17T02:16:20;45.17;;;1.70;;
2838;SDS011;1427;48.510;9.060;2024-03-17T02:18:46;46.10;;;2.17;;
2838;SDS011;1427;48.510;9.060;2024-03-17T02:21:14;44.90;;;1.50;;
2838;SDS011;1427;48.510;9.060;2024-03-17T02:23:42;45.37;;;2.10;;
2838;SDS011;1427;48.510;9.060;2024-03-17T02:26:10;51.17;;;1.93;;
2838;SDS011;1427;48.510;9.060;2024-03-17T02:28:39;46.80;;;2.00;;
2838;SDS011;1427;48.510;9.060;2024-03-17T02:31:07;45.07;;;1.50;;
2838;SDS011;1427;48.510;9.060;2024-03-17T02:33:35;45.33;;;1.73;;
2838;SDS011;1427;48.510;9.060;2024-03-17T02:36:04;46.17;;;2.17;;
2838;SDS011;1427;48.510;9.060;2024-03-17T02:38:32;45.67;;;1.70;;
2838;SDS011;1427;48.510;9.060;2024-03-17T02:41:19;47.73;;;1.70;;
2838;SDS011;1427;48.510;9.060;2024-03-17T02:43:46;45.37;;;1.93;;
2838;SDS011;1427;48.510;9.060;2024-03-17T02:46:14;45.47;;;2.00;;
2838;SDS011;1427;48.510;9.060;2024-03-17T02:48:43;45.50;;;2.10;;
2838;SDS011;1427;48.510;9.060;2024-03-17T02:51:17;47.90;;;1.90;;
2838;SDS011;1427;48.510;9.060;2024-03-17T02:53:46;45.57;;;1.97;;
2838;SDS011;1427;48.510;9.060;2024-03-17T02:56:14;46.10;;;2.07;;
2838;SDS011;1427;48.510;9.060;2024-03-17T02:58:44;45.80;;;1.60;;
2838;SDS011;1427;48.510;9.060;2024-03-17T03:01:12;45.57;;;1.70;;
2838;SDS011;1427;48.510;9.060;2024-03-17T03:03:41;45.10;;;1.60;;
2838;SDS011;1427;48.510;9.060;2024-03-17T03:06:08;45.80;;;1.90;;
2838;SDS011;1427;48.510;9.060;2024-03-17T03:08:37;45.60;;;2.03;;
2838;SDS011;1427;48.510;9.060;2024-03-17T03:11:06;45.27;;;1.40;;
2838;SDS011;1427;48.510;9.060;2024-03-17T03:13:36;45.00;;;1.57;;
2838;SDS011;1427;48.510;9.060;2024-03-17T03:16:06;48.00;;;2.43;;
2838;SDS011;1427;48.510;9.060;2024-03-17T03:18:34;45.33;;;1.80;;
2838;SDS011;1427;48.510;9.060;2024-03-17T03:21:01;44.47;;;1.33;;
2838;SDS011;1427;48.510;9.060;2024-03-17T03:23:29;47.10;;;2.90;;
2838;SDS011;1427;48.510;9.060;2024-03-17T03:25:57;44.90;;;1.93;;
2838;SDS011;1427;48.510;9.060;2024-03-17T03:28:24;44.87;;;1.40;;
2838;SDS011;1427;48.510;9.060;2024-03-17T03:30:52;45.60;;;2.03;;
2838;SDS011;1427;48.510;9.060;2024-03-17T03:33:21;45.27;;;2.00;;
2838;SDS011;1427;48.510;9.060;2024-03-17T03:35:48;44.50;;;1.43;;
2838;SDS011;1427;48.510;9.060;2024-03-17T03:38:16;44.77;;;1.50;;
2838;SDS011;1427;48.510;9.060;2024-03-17T03:40:44;47.67;;;3.30;;
2838;SDS011;1427;48.510;9.060;2024-03-17T03:43:13;46.73;;;1.60;;
2838;SDS011;1427;48.510;9.060;2024-03-17T03:45:40;45.40;;;1.73;;
2838;SDS011;1427;48.510;9.060;2024-03-17T03:48:08;45.20;;;1.67;;
2838;SDS011;1427;48.510;9.060;2024-03-17T03:50:36;45.90;;;1.87;;
2838;SDS011;1427;48.510;9.060;2024-03-17T03:53:04;45.90;;;2.40;;
2838;SDS011;1427;48.510;9.060;2024-03-17T03:55:32;45.20;;;1.70;;
2838;SDS011;1427;48.510;9.060;2024-03-17T03:57:59;45.47;;;1.70;;
2838;SDS011;1427;48.510;9.060;2024-03-17T04:00:28;45.10;;;1.87;;
2838;SDS011;1427;48.510;9.060;2024-03-17T04:02:57;45.30;;;2.23;;
2838;SDS011;1427;48.510;9.060;2024-03-17T04:05:25;45.27;;;1.50;;
2838;SDS011;1427;48.510;9.060;2024-03-17T04:07:55;45.70;;;2.03;;
2838;SDS011;1427;48.510;9.060;2024-03-17T04:10:22;45.20;;;1.73;;
2838;SDS011;1427;48.510;9.060;2024-03-17T04:12:49;45.13;;;1.70;;
2838;SDS011;1427;48.510;9.060;2024-03-17T04:15:16;45.10;;;1.80;;
2838;SDS011;1427;48.510;9.060;2024-03-17T04:17:44;44.80;;;1.63;;
2838;SDS011;1427;48.510;9.060;2024-03-17T04:20:12;45.07;;;1.60;;
2838;SDS011;1427;48.510;9.060;2024-03-17T04:22:39;45.10;;;1.30;;
2838;SDS011;1427;48.510;9.060;2024-03-17T04:25:09;45.13;;;1.77;;
2838;SDS011;1427;48.510;9.060;2024-03-17T04:27:37;46.87;;;2.20;;
2838;SDS011;1427;48.510;9.060;2024-03-17T04:30:05;45.00;;;1.60;;
2838;SDS011;1427;48.510;9.060;2024-03-17T04:32:33;45.00;;;1.43;;
2838;SDS011;1427;48.510;9.060;2024-03-17T04:35:00;44.87;;;1.70;;
2838;SDS011;1427;48.510;9.060;2024-03-17T04:37:28;45.10;;;1.90;;
2838;SDS011;1427;48.510;9.060;2024-03-17T04:39:55;45.17;;;1.70;;
2838;SDS011;1427;48.510;9.060;2024-03-17T04:42:24;49.23;;;1.97;;
2838;SDS011;1427;48.510;9.060;2024-03-17T04:44:51;46.10;;;2.27;;
2838;SDS011;1427;48.510;9.060;2024-03-17T04:47:18;44.90;;;1.33;;
2838;SDS011;1427;48.510;9.060;2024-03-17T04:49:45;45.07;;;1.50;;
2838;SDS011;1427;48.510;9.060;2024-03-17T04:52:13;45.37;;;1.97;;
2838;SDS011;1427;48.510;9.060;2024-03-17T04:54:41;47.43;;;2.00;;
2838;SDS011;1427;48.510;9.060;2024-03-17T04:57:09;45.57;;;1.80;;
2838;SDS011;1427;48.510;9.060;2024-03-17T04:59:37;45.23;;;1.80;;
2838;SDS011;1427;48.510;9.060;2024-03-17T05:02:05;44.70;;;1.80;;
2838;SDS011;1427;48.510;9.060;2024-03-17T05:04:32;46.47;;;1.97;;
2838;SDS011;1427;48.510;9.060;2024-03-17T05:06:59;45.50;;;1.53;;
2838;SDS011;1427;48.510;9.060;2024-03-17T05:09:27;46.00;;;1.67;;
2838;SDS011;1427;48.510;9.060;2024-03-17T05:11:54;45.60;;;2.00;;
2838;SDS011;1427;48.510;9.060;2024-03-17T05:14:21;45.90;;;2.10;;
2838;SDS011;1427;48.510;9.060;2024-03-17T05:16:50;48.77;;;2.10;;
2838;SDS011;1427;48.510;9.060;2024-03-17T05:19:17;45.07;;;1.50;;
2838;SDS011;1427;48.510;9.060;2024-03-17T05:21:45;45.30;;;1.90;;
2838;SDS011;1427;48.510;9.060;2024-03-17T05:24:12;45.57;;;1.73;;
2838;SDS011;1427;48.510;9.060;2024-03-17T05:26:39;45.83;;;1.93;;
2838;SDS011;1427;48.510;9.060;2024-03-17T05:29:07;47.20;;;1.73;;
2838;SDS011;1427;48.510;9.060;2024-03-17T05:31:35;50.07;;;2.23;;
2838;SDS011;1427;48.510;9.060;2024-03-17T05:34:05;45.90;;;2.00;;
2838;SDS011;1427;48.510;9.060;2024-03-17T05:36:32;45.00;;;1.40;;
2838;SDS011;1427;48.510;9.060;2024-03-17T05:39:00;45.77;;;1.97;;
2838;SDS011;1427;48.510;9.060;2024-03-17T05:41:27;46.83;;;2.50;;
2838;SDS011;1427;48.510;9.060;2024-03-17T05:43:54;48.27;;;2.60;;
2838;SDS011;1427;48.510;9.060;2024-03-17T05:46:23;45.70;;;2.60;;
2838;SDS011;1427;48.510;9.060;2024-03-17T05:48:52;47.10;;;3.50;;
2838;SDS011;1427;48.510;9.060;2024-03-17T05:51:20;46.67;;;3.40;;
2838;SDS011;1427;48.510;9.060;2024-03-17T05:53:47;47.23;;;4.00;;
2838;SDS011;1427;48.510;9.060;2024-03-17T05:56:14;45.80;;;3.20;;
2838;SDS011;1427;48.510;9.060;2024-03-17T05:58:42;47.03;;;4.03;;
2838;SDS011;1427;48.510;9.060;2024-03-17T06:01:09;46.30;;;2.93;;
2838;SDS011;1427;48.510;9.060;2024-03-17T06:03:36;46.30;;;3.80;;
2838;SDS011;1427;48.510;9.060;2024-03-17T06:06:04;48.50;;;3.80;;
2838;SDS011;1427;48.510;9.060;2024-03-17T06:08:36;46.27;;;3.40;;
2838;SDS011;1427;48.510;9.060;2024-03-17T06:11:04;48.20;;;3.40;;
2838;SDS011;1427;48.510;9.060;2024-03-17T06:13:31;47.70;;;3.37;;
2838;SDS011;1427;48.510;9.060;2024-03-17T06:15:59;47.03;;;4.00;;
2838;SDS011;1427;48.510;9.060;2024-03-17T06:18:28;47.07;;;3.63;;
2838;SDS011;1427;48.510;9.060;2024-03-17T06:20:55;51.57;;;4.90;;
2838;SDS011;1427;48.510;9.060;2024-03-17T06:23:24;46.47;;;4.40;;
2838;SDS011;1427;48.510;9.060;2024-03-17T06:25:54;47.50;;;4.50;;
2838;SDS011;1427;48.510;9.060;2024-03-17T06:28:22;46.70;;;3.50;;
2838;SDS011;1427;48.510;9.060;2024-03-17T06:30:56;48.03;;;4.23;;
2838;SDS011;1427;48.510;9.060;2024-03-17T06:33:25;46.70;;;3.50;;
2838;SDS011;1427;48.510;9.060;2024-03-17T06:35:53;47.57;;;3.60;;
2838;SDS011;1427;48.510;9.060;2024-03-17T06:38:21;45.90;;;3.40;;
2838;SDS011;1427;48.510;9.060;2024-03-17T06:40:49;47.77;;;5.37;;
2838;SDS011;1427;48.510;9.060;2024-03-17T06:43:18;46.03;;;3.37;;
2838;SDS011;1427;48.510;9.060;2024-03-17T06:45:53;46.30;;;3.23;;
2838;SDS011;1427;48.510;9.060;2024-03-17T06:48:21;46.60;;;3.33;;
2838;SDS011;1427;48.510;9.060;2024-03-17T06:50:48;47.10;;;3.70;;
2838;SDS011;1427;48.510;9.060;2024-03-17T06:53:16;47.10;;;4.63;;
2838;SDS011;1427;48.510;9.060;2024-03-17T06:55:44;47.73;;;3.70;;
2838;SDS011;1427;48.510;9.060;2024-03-17T06:58:19;47.17;;;4.87;;
2838;SDS011;1427;48.510;9.060;2024-03-17T07:00:52;50.33;;;3.57;;
2838;SDS011;1427;48.510;9.060;2024-03-17T07:03:20;47.57;;;3.60;;
2838;SDS011;1427;48.510;9.060;2024-03-17T07:05:52;47.00;;;3.40;;
2838;SDS011;1427;48.510;9.060;2024-03-17T07:08:20;66.83;;;4.40;;
2838;SDS011;1427;48.510;9.060;2024-03-17T07:10:54;48.80;;;3.40;;
2838;SDS011;1427;48.510;9.060;2024-03-17T07:13:27;48.50;;;4.47;;
2838;SDS011;1427;48.510;9.060;2024-03-17T07:15:55;45.80;;;3.10;;
2838;SDS011;1427;48.510;9.060;2024-03-17T07:18:22;47.27;;;4.30;;
2838;SDS011;1427;48.510;9.060;2024-03-17T07:20:50;47.37;;;3.97;;
2838;SDS011;1427;48.510;9.060;2024-03-17T07:23:17;46.47;;;3.70;;
2838;SDS011;1427;48.510;9.060;2024-03-17T07:25:51;46.30;;;3.30;;
2838;SDS011;1427;48.510;9.060;2024-03-17T07:28:19;48.50;;;3.80;;
2838;SDS011;1427;48.510;9.060;2024-03-17T07:30:48;56.10;;;4.57;;
2838;SDS011;1427;48.510;9.060;2024-03-17T07:33:16;47.30;;;4.13;;
2838;SDS011;1427;48.510;9.060;2024-03-17T07:35:47;47.73;;;3.60;;
2838;SDS011;1427;48.510;9.060;2024-03-17T07:38:14;46.47;;;3.70;;
2838;SDS011;1427;48.510;9.060;2024-03-17T07:40:42;48.70;;;4.30;;
2838;SDS011;1427;48.510;9.060;2024-03-17T07:43:09;49.00;;;4.37;;
2838;SDS011;1427;48.510;9.060;2024-03-17T07:45:36;47.43;;;4.43;;
2838;SDS011;1427;48.510;9.060;2024-03-17T07:48:05;49.10;;;4.20;;
2838;SDS011;1427;48.510;9.060;2024-03-17T07:50:33;47.40;;;3.83;;
2838;SDS011;1427;48.510;9.060;2024-03-17T07:53:00;46.70;;;3.80;;
2838;SDS011;1427;48.510;9.060;2024-03-17T07:55:28;49.10;;;4.57;;
2838;SDS011;1427;48.510;9.060;2024-03-17T07:57:56;49.70;;;4.63;;
2838;SDS011;1427;48.510;9.060;2024-03-17T08:00:24;50.70;;;5.77;;
2838;SDS011;1427;48.510;9.060;2024-03-17T08:02:51;47.27;;;4.43;;
2838;SDS011;1427;48.510;9.060;2024-03-17T08:05:20;48.73;;;4.90;;
2838;SDS011;1427;48.510;9.060;2024-03-17T08:07:48;49.37;;;4.33;;
2838;SDS011;1427;48.510;9.060;2024-03-17T08:10:15;49.67;;;5.30;;
2838;SDS011;1427;48.510;9.060;2024-03-17T08:12:43;49.43;;;4.70;;
2838;SDS011;1427;48.510;9.060;2024-03-17T08:15:11;48.10;;;4.30;;
2838;SDS011;1427;48.510;9.060;2024-03-17T08:17:38;47.37;;;4.30;;
2838;SDS011;1427;48.510;9.060;2024-03-17T08:20:05;58.20;;;4.37;;
2838;SDS011;1427;48.510;9.060;2024-03-17T08:22:34;47.73;;;4.27;;
2838;SDS011;1427;48.510;9.060;2024-03-17T08:25:01;50.37;;;4.97;;
2838;SDS011;1427;48.510;9.060;2024-03-17T08:27:30;50.37;;;5.10;;
2838;SDS011;1427;48.510;9.060;2024-03-17T08:29:57;50.27;;;6.53;;
2838;SDS011;1427;48.510;9.060;2024-03-17T08:32:24;52.23;;;5.50;;
2838;SDS011;1427;48.510;9.060;2024-03-17T08:34:51;52.70;;;6.17;;
2838;SDS011;1427;48.510;9.060;2024-03-17T08:37:18;47.70;;;4.30;;
2838;SDS011;1427;48.510;9.060;2024-03-17T08:39:47;47.63;;;4.60;;
2838;SDS011;1427;48.510;9.060;2024-03-17T08:42:15;50.00;;;5.03;;
2838;SDS011;1427;48.510;9.060;2024-03-17T08:44:45;51.03;;;4.83;;
2838;SDS011;1427;48.510;9.060;2024-03-17T08:47:12;48.63;;;4.20;;
2838;SDS011;1427;48.510;9.060;2024-03-17T08:49:39;48.50;;;4.97;;
2838;SDS011;1427;48.510;9.060;2024-03-17T08:52:06;52.73;;;6.33;;
2838;SDS011;1427;48.510;9.060;2024-03-17T08:54:34;47.97;;;3.77;;
2838;SDS011;1427;48.510;9.060;2024-03-17T08:57:02;48.03;;;4.90;;
2838;SDS011;1427;48.510;9.060;2024-03-17T08:59:29;49.40;;;5.87;;
2838;SDS011;1427;48.510;9.060;2024-03-17T09:01:56;48.40;;;3.90;;
2838;SDS011;1427;48.510;9.060;2024-03-17T09:04:23;48.93;;;3.80;;
2838;SDS011;1427;48.510;9.060;2024-03-17T09:06:50;48.03;;;4.33;;
2838;SDS011;1427;48.510;9.060;2024-03-17T09:09:20;51.53;;;4.90;;
2838;SDS011;1427;48.510;9.060;2024-03-17T09:11:47;51.77;;;5.10;;
2838;SDS011;1427;48.510;9.060;2024-03-17T09:14:15;49.63;;;4.90;;
2838;SDS011;1427;48.510;9.060;2024-03-17T09:16:42;50.37;;;5.00;;
2838;SDS011;1427;48.510;9.060;2024-03-17T09:19:09;57.60;;;7.30;;
2838;SDS011;1427;48.510;9.060;2024-03-17T09:21:37;52.47;;;6.13;;
2838;SDS011;1427;48.510;9.060;2024-03-17T09:24:05;52.67;;;6.27;;
2838;SDS011;1427;48.510;9.060;2024-03-17T09:26:33;50.53;;;4.60;;
2838;SDS011;1427;48.510;9.060;2024-03-17T09:29:01;47.80;;;3.90;;
2838;SDS011;1427;48.510;9.060;2024-03-17T09:31:30;49.10;;;5.20;;
2838;SDS011;1427;48.510;9.060;2024-03-17T09:33:59;49.70;;;4.43;;
2838;SDS011;1427;48.510;9.060;2024-03-17T09:36:26;47.27;;;3.70;;
2838;SDS011;1427;48.510;9.060;2024-03-17T09:38:53;49.80;;;4.30;;
2838;SDS011;1427;48.510;9.060;2024-03-17T09:41:21;47.57;;;5.30;;
2838;SDS011;1427;48.510;9.060;2024-03-17T09:43:50;49.90;;;4.87;;
2838;SDS011;1427;48.510;9.060;2024-03-17T09:46:20;62.47;;;8.47;;
2838;SDS011;1427;48.510;9.060;2024-03-17T09:48:50;53.93;;;6.93;;
2838;SDS011;1427;48.510;9.060;2024-03-17T09:51:18;48.13;;;4.43;;
2838;SDS011;1427;48.510;9.060;2024-03-17T09:53:46;48.80;;;4.80;;
2838;SDS011;1427;48.510;9.060;2024-03-17T09:56:14;50.13;;;4.00;;
2838;SDS011;1427;48.510;9.060;2024-03-17T09:58:44;51.10;;;4.23;;
2838;SDS011;1427;48.510;9.060;2024-03-17T10:01:12;51.00;;;5.63;;
2838;SDS011;1427;48.510;9.060;2024-03-17T10:03:40;48.37;;;4.80;;
2838;SDS011;1427;48.510;9.060;2024-03-17T10:06:11;46.53;;;3.63;;
2838;SDS011;1427;48.510;9.060;2024-03-17T10:08:40;55.50;;;4.40;;
2838;SDS011;1427;48.510;9.060;2024-03-17T10:11:08;52.20;;;5.40;;
2838;SDS011;1427;48.510;9.060;2024-03-17T10:13:36;50.37;;;4.40;;
2838;SDS011;1427;48.510;9.060;2024-03-17T10:16:04;51.20;;;4.97;;
2838;SDS011;1427;48.510;9.060;2024-03-17T10:18:31;48.53;;;4.13;;
2838;SDS011;1427;48.510;9.060;2024-03-17T10:20:58;51.27;;;4.93;;
2838;SDS011;1427;48.510;9.060;2024-03-17T10:23:28;51.37;;;4.87;;
2838;SDS011;1427;48.510;9.060;2024-03-17T10:25:55;48.10;;;4.47;;
2838;SDS011;1427;48.510;9.060;2024-03-17T10:28:22;46.90;;;3.60;;
2838;SDS011;1427;48.510;9.060;2024-03-17T10:30:59;50.20;;;3.90;;
2838;SDS011;1427;48.510;9.060;2024-03-17T10:33:27;47.97;;;4.07;;
2838;SDS011;1427;48.510;9.060;2024-03-17T10:36:00;47.57;;;3.97;;
2838;SDS011;1427;48.510;9.060;2024-03-17T10:38:32;50.90;;;3.97;;
2838;SDS011;1427;48.510;9.060;2024-03-17T10:41:00;47.87;;;4.23;;
2838;SDS011;1427;48.510;9.060;2024-03-17T10:43:27;47.27;;;3.90;;
2838;SDS011;1427;48.510;9.060;2024-03-17T10:45:56;46.57;;;3.33;;
2838;SDS011;1427;48.510;9.060;2024-03-17T10:48:25;46.50;;;3.50;;
2838;SDS011;1427;48.510;9.060;2024-03-17T10:50:57;46.60;;;3.20;;
2838;SDS011;1427;48.510;9.060;2024-03-17T10:53:28;48.13;;;4.20;;
2838;SDS011;1427;48.510;9.060;2024-03-17T10:56:03;46.80;;;3.50;;
2838;SDS011;1427;48.510;9.060;2024-03-17T10:58:34;48.20;;;4.70;;
2838;SDS011;1427;48.510;9.060;2024-03-17T11:01:03;49.47;;;4.70;;
2838;SDS011;1427;48.510;9.060;2024-03-17T11:03:34;48.57;;;4.10;;
2838;SDS011;1427;48.510;9.060;2024-03-17T11:06:02;46.57;;;3.17;;
2838;SDS011;1427;48.510;9.060;2024-03-17T11:08:32;47.90;;;4.20;;
2838;SDS011;1427;48.510;9.060;2024-03-17T11:11:00;55.77;;;7.53;;
2838;SDS011;1427;48.510;9.060;2024-03-17T11:13:29;47.00;;;3.57;;
2838;SDS011;1427;48.510;9.060;2024-03-17T11:15:58;46.80;;;3.57;;
2838;SDS011;1427;48.510;9.060;2024-03-17T11:18:33;48.83;;;3.77;;
2838;SDS011;1427;48.510;9.060;2024-03-17T11:21:01;51.97;;;3.53;;
2838;SDS011;1427;48.510;9.060;2024-03-17T11:23:35;48.50;;;4.17;;
2838;SDS011;1427;48.510;9.060;2024-03-17T11:26:04;48.97;;;3.30;;
2838;SDS011;1427;48.510;9.060;2024-03-17T11:31:37;48.10;;;3.50;;
2838;SDS011;1427;48.510;9.060;2024-03-17T11:34:28;49.10;;;5.03;;
2838;SDS011;1427;48.510;9.060;2024-03-17T11:36:55;55.10;;;4.73;;
2838;SDS011;1427;48.510;9.060;2024-03-17T11:42:17;48.53;;;4.00;;
2838;SDS011;1427;48.510;9.060;2024-03-17T11:44:54;51.50;;;4.87;;
2838;SDS011;1427;48.510;9.060;2024-03-17T11:47:22;49.10;;;4.03;;
2838;SDS011;1427;48.510;9.060;2024-03-17T11:49:49;47.20;;;3.80;;
2838;SDS011;1427;48.510;9.060;2024-03-17T11:52:17;48.30;;;3.93;;
2838;SDS011;1427;48.510;9.060;2024-03-17T11:54:45;48.10;;;3.37;;
2838;SDS011;1427;48.510;9.060;2024-03-17T11:57:21;46.77;;;3.30;;
2838;SDS011;1427;48.510;9.060;2024-03-17T11:59:49;47.27;;;4.20;;
2838;SDS011;1427;48.510;9.060;2024-03-17T12:02:16;46.97;;;3.60;;
2838;SDS011;1427;48.510;9.060;2024-03-17T12:04:45;52.50;;;3.50;;
2838;SDS011;1427;48.510;9.060;2024-03-17T12:07:13;49.00;;;4.53;;
2838;SDS011;1427;48.510;9.060;2024-03-17T12:09:41;50.23;;;4.03;;
2838;SDS011;1427;48.510;9.060;2024-03-17T12:12:09;48.23;;;3.73;;
2838;SDS011;1427;48.510;9.060;2024-03-17T12:14:39;47.07;;;3.37;;
2838;SDS011;1427;48.510;9.060;2024-03-17T12:17:07;47.47;;;4.20;;
2838;SDS011;1427;48.510;9.060;2024-03-17T12:19:36;46.97;;;3.03;;
2838;SDS011;1427;48.510;9.060;2024-03-17T12:22:05;49.20;;;4.70;;
2838;SDS011;1427;48.510;9.060;2024-03-17T12:24:33;53.93;;;5.50;;
2838;SDS011;1427;48.510;9.060;2024-03-17T12:27:00;46.40;;;2.50;;
2838;SDS011;1427;48.510;9.060;2024-03-17T12:29:29;47.00;;;3.80;;
2838;SDS011;1427;48.510;9.060;2024-03-17T12:31:59;47.90;;;3.80;;
2838;SDS011;1427;48.510;9.060;2024-03-17T12:34:29;48.60;;;3.30;;
2838;SDS011;1427;48.510;9.060;2024-03-17T12:36:56;47.57;;;3.97;;
2838;SDS011;1427;48.510;9.060;2024-03-17T12:39:25;47.07;;;3.97;;
2838;SDS011;1427;48.510;9.060;2024-03-17T12:42:02;48.67;;;3.37;;
2838;SDS011;1427;48.510;9.060;2024-03-17T12:44:31;47.53;;;3.80;;
2838;SDS011;1427;48.510;9.060;2024-03-17T12:47:00;46.47;;;3.27;;
2838;SDS011;1427;48.510;9.060;2024-03-17T12:49:29;46.80;;;3.60;;
2838;SDS011;1427;48.510;9.060;2024-03-17T12:51:56;51.43;;;4.37;;
2838;SDS011;1427;48.510;9.060;2024-03-17T12:54:25;46.70;;;3.50;;
2838;SDS011;1427;48.510;9.060;2024-03-17T12:57:03;47.03;;;3.47;;
2838;SDS011;1427;48.510;9.060;2024-03-17T12:59:48;46.80;;;3.77;;
2838;SDS011;1427;48.510;9.060;2024-03-17T13:02:43;46.80;;;3.37;;
2838;SDS011;1427;48.510;9.060;2024-03-17T13:05:14;50.37;;;4.00;;
2838;SDS011;1427;48.510;9.060;2024-03-17T13:07:45;46.90;;;3.57;;
2838;SDS011;1427;48.510;9.060;2024-03-17T13:10:13;49.30;;;4.27;;
2838;SDS011;1427;48.510;9.060;2024-03-17T13:12:41;45.97;;;2.77;;
2838;SDS011;1427;48.510;9.060;2024-03-17T13:15:09;48.93;;;4.50;;
2838;SDS011;1427;48.510;9.060;2024-03-17T13:17:38;47.50;;;3.80;;
2838;SDS011;1427;48.510;9.060;2024-03-17T13:20:07;46.80;;;3.67;;
2838;SDS011;1427;48.510;9.060;2024-03-17T13:22:38;51.63;;;6.10;;
2838;SDS011;1427;48.510;9.060;2024-03-17T13:25:12;47.30;;;3.70;;
2838;SDS011;1427;48.510;9.060;2024-03-17T13:27:41;47.27;;;3.77;;
2838;SDS011;1427;48.510;9.060;2024-03-17T13:30:08;47.43;;;3.90;;
2838;SDS011;1427;48.510;9.060;2024-03-17T13:32:36;48.43;;;3.50;;
2838;SDS011;1427;48.510;9.060;2024-03-17T13:35:06;47.47;;;3.40;;
2838;SDS011;1427;48.510;9.060;2024-03-17T13:37:39;48.20;;;4.13;;
2838;SDS011;1427;48.510;9.060;2024-03-17T13:40:07;46.73;;;3.60;;
2838;SDS011;1427;48.510;9.060;2024-03-17T13:42:37;47.27;;;4.00;;
2838;SDS011;1427;48.510;9.060;2024-03-17T13:45:04;46.40;;;3.37;;
2838;SDS011;1427;48.510;9.060;2024-03-17T13:47:36;46.37;;;3.10;;
2838;SDS011;1427;48.510;9.060;2024-03-17T13:50:03;46.40;;;3.23;;
2838;SDS011;1427;48.510;9.060;2024-03-17T13:52:37;46.37;;;3.03;;
2838;SDS011;1427;48.510;9.060;2024-03-17T13:55:04;46.90;;;3.07;;
2838;SDS011;1427;48.510;9.060;2024-03-17T13:57:32;49.60;;;3.40;;
2838;SDS011;1427;48.510;9.060;2024-03-17T13:59:59;47.80;;;3.80;;
2838;SDS011;1427;48.510;9.060;2024-03-17T14:02:27;49.07;;;4.30;;
2838;SDS011;1427;48.510;9.060;2024-03-17T14:04:54;46.07;;;3.03;;
2838;SDS011;1427;48.510;9.060;2024-03-17T14:07:21;46.80;;;3.93;;
2838;SDS011;1427;48.510;9.060;2024-03-17T14:09:50;47.23;;;3.37;;
2838;SDS011;1427;48.510;9.060;2024-03-17T14:12:17;45.40;;;2.50;;
2838;SDS011;1427;48.510;9.060;2024-03-17T14:14:44;49.50;;;3.63;;
2838;SDS011;1427;48.510;9.060;2024-03-17T14:17:11;47.43;;;3.90;;
2838;SDS011;1427;48.510;9.060;2024-03-17T14:19:38;46.40;;;3.60;;
2838;SDS011;1427;48.510;9.060;2024-03-17T14:22:05;47.23;;;3.90;;
2838;SDS011;1427;48.510;9.060;2024-03-17T14:24:32;48.47;;;3.67;;
2838;SDS011;1427;48.510;9.060;2024-03-17T14:27:01;46.80;;;3.37;;
2838;SDS011;1427;48.510;9.060;2024-03-17T14:29:29;48.30;;;5.10;;
2838;SDS011;1427;48.510;9.060;2024-03-17T14:31:56;46.57;;;3.50;;
2838;SDS011;1427;48.510;9.060;2024-03-17T14:34:23;46.77;;;3.10;;
2838;SDS011;1427;48.510;9.060;2024-03-17T14:36:52;46.57;;;3.27;;
2838;SDS011;1427;48.510;9.060;2024-03-17T14:39:19;46.40;;;3.10;;
2838;SDS011;1427;48.510;9.060;2024-03-17T14:41:46;51.73;;;3.27;;
2838;SDS011;1427;48.510;9.060;2024-03-17T14:44:16;46.40;;;3.53;;
2838;SDS011;1427;48.510;9.060;2024-03-17T14:46:44;50.30;;;3.40;;
2838;SDS011;1427;48.510;9.060;2024-03-17T14:49:11;46.43;;;3.37;;
2838;SDS011;1427;48.510;9.060;2024-03-17T14:51:38;49.40;;;5.67;;
2838;SDS011;1427;48.510;9.060;2024-03-17T14:54:05;47.63;;;3.60;;
2838;SDS011;1427;48.510;9.060;2024-03-17T14:56:33;47.37;;;3.37;;
2838;SDS011;1427;48.510;9.060;2024-03-17T14:59:00;46.80;;;3.47;;
2838;SDS011;1427;48.510;9.060;2024-03-17T15:01:29;46.30;;;3.60;;
2838;SDS011;1427;48.510;9.060;2024-03-17T15:03:56;46.20;;;3.27;;
2838;SDS011;1427;48.510;9.060;2024-03-17T15:06:23;46.93;;;2.90;;
2838;SDS011;1427;48.510;9.060;2024-03-17T15:08:50;47.47;;;4.40;;
2838;SDS011;1427;48.510;9.060;2024-03-17T15:11:17;50.20;;;3.67;;
2838;SDS011;1427;48.510;9.060;2024-03-17T15:13:44;46.83;;;3.50;;